createdAt,value
2023-04-14T00:00:47.008Z,4.83
2023-04-14T00:01:38.513Z,4.82
2023-04-14T00:02:30.183Z,4.83
2023-04-14T00:03:22.034Z,4.85
2023-04-14T00:04:14.697Z,4.84
2023-04-14T00:05:08.204Z,4.85
2023-04-14T00:05:59.849Z,4.87
2023-04-14T00:06:52.585Z,4.86
2023-04-14T00:07:44.036Z,4.84
2023-04-14T00:08:38.765Z,4.86
2023-04-14T00:09:30.268Z,4.84
2023-04-14T00:10:21.798Z,4.79
2023-04-14T00:11:13.241Z,4.81
2023-04-14T00:12:06.727Z,4.83
2023-04-14T00:13:02.124Z,4.78
2023-04-14T00:13:56.022Z,4.77
2023-04-14T00:14:49.595Z,4.74
2023-04-14T00:15:42.334Z,4.69
2023-04-14T00:16:33.941Z,4.61
2023-04-14T00:17:25.693Z,4.54
2023-04-14T00:18:17.144Z,4.56
2023-04-14T00:19:08.953Z,4.49
2023-04-14T00:20:00.546Z,4.52
2023-04-14T00:20:54.111Z,4.53
2023-04-14T00:21:45.855Z,4.54
2023-04-14T00:22:37.306Z,4.55
2023-04-14T00:23:28.744Z,4.51
2023-04-14T00:24:20.238Z,4.50
2023-04-14T00:25:11.741Z,4.48
2023-04-14T00:26:03.292Z,4.48
2023-04-14T00:26:57.169Z,4.50
2023-04-14T00:27:51.336Z,4.47
2023-04-14T00:28:42.814Z,4.42
2023-04-14T00:29:34.719Z,4.41
2023-04-14T00:30:26.985Z,4.34
2023-04-14T00:31:18.484Z,4.29
2023-04-14T00:32:09.980Z,4.28
2023-04-14T00:33:01.501Z,4.24
2023-04-14T00:33:55.173Z,4.27
2023-04-14T00:34:46.604Z,4.26
2023-04-14T00:35:38.408Z,4.22
2023-04-14T00:36:29.872Z,4.23
2023-04-14T00:37:21.354Z,4.21
2023-04-14T00:38:17.034Z,4.18
2023-04-14T00:39:12.657Z,4.19
2023-04-14T00:40:04.484Z,4.19
2023-04-14T00:40:55.924Z,4.14
2023-04-14T00:41:47.344Z,4.12
2023-04-14T00:42:45.592Z,4.09
2023-04-14T00:43:37.043Z,4.04
2023-04-14T00:44:28.665Z,4.05
2023-04-14T00:45:20.300Z,3.96
2023-04-14T00:46:17.207Z,3.96
2023-04-14T00:47:09.339Z,4.02
2023-04-14T00:48:01.059Z,4.05
2023-04-14T00:48:57.456Z,4.11
2023-04-14T00:49:49.117Z,4.10
2023-04-14T00:50:41.109Z,4.07
2023-04-14T00:51:33.747Z,4.03
2023-04-14T00:52:25.926Z,4.05
2023-04-14T00:53:21.271Z,4.09
2023-04-14T00:54:15.856Z,4.12
2023-04-14T00:55:08.092Z,4.10
2023-04-14T00:56:00.985Z,4.07
2023-04-14T00:56:54.406Z,4.05
2023-04-14T00:57:46.733Z,4.05
2023-04-14T00:58:39.003Z,4.03
2023-04-14T00:59:31.431Z,3.95
2023-04-14T01:00:23.488Z,3.96
2023-04-14T01:01:15.998Z,3.96
2023-04-14T01:02:07.938Z,3.97
2023-04-14T01:03:00.587Z,3.99
2023-04-14T01:03:52.529Z,4.00
2023-04-14T01:04:53.842Z,3.97
2023-04-14T01:05:48.454Z,3.96
2023-04-14T01:06:39.921Z,3.99
2023-04-14T01:07:33.463Z,3.98
2023-04-14T01:08:27.094Z,3.99
2023-04-14T01:09:18.647Z,3.99
2023-04-14T01:10:11.496Z,3.98
2023-04-14T01:11:30.896Z,4.00
2023-04-14T01:12:48.247Z,3.98
2023-04-14T01:13:42.972Z,3.97
2023-04-14T01:14:44.719Z,3.98
2023-04-14T01:15:47.225Z,3.98
2023-04-14T01:16:42.377Z,4.00
2023-04-14T01:17:51.827Z,4.01
2023-04-14T01:19:12.610Z,4.00
2023-04-14T01:20:09.791Z,3.99
2023-04-14T01:21:15.955Z,3.97
2023-04-14T01:22:10.530Z,3.93
2023-04-14T01:23:09.681Z,3.87
2023-04-14T01:24:18.440Z,3.86
2023-04-14T01:25:25.106Z,3.84
2023-04-14T01:26:30.158Z,3.80
2023-04-14T01:27:43.756Z,3.67
2023-04-14T01:29:02.991Z,3.64
2023-04-14T01:30:11.750Z,3.61
2023-04-14T01:31:12.221Z,3.63
2023-04-14T01:32:11.665Z,3.65
2023-04-14T01:33:12.425Z,3.61
2023-04-14T01:34:17.071Z,3.60
2023-04-14T01:35:20.734Z,3.56
2023-04-14T01:36:33.184Z,3.51
2023-04-14T01:37:32.024Z,3.54
2023-04-14T01:38:36.016Z,3.56
2023-04-14T01:39:35.350Z,3.57
2023-04-14T01:40:31.787Z,3.52
2023-04-14T01:41:30.870Z,3.47
2023-04-14T01:42:31.711Z,3.46
2023-04-14T01:43:28.136Z,3.41
2023-04-14T01:44:22.968Z,3.41
2023-04-14T01:45:27.791Z,3.40
2023-04-14T01:46:23.665Z,3.39
2023-04-14T01:47:20.179Z,3.39
2023-04-14T01:48:12.967Z,3.34
2023-04-14T01:49:06.470Z,3.33
2023-04-14T01:50:03.938Z,3.31
2023-04-14T01:50:56.778Z,3.33
2023-04-14T01:51:51.571Z,3.34
2023-04-14T01:52:47.803Z,3.29
2023-04-14T01:53:44.709Z,3.24
2023-04-14T01:54:39.605Z,3.26
2023-04-14T01:55:35.461Z,3.16
2023-04-14T01:56:40.770Z,3.14
2023-04-14T01:57:35.814Z,3.15
2023-04-14T01:58:30.103Z,3.14
2023-04-14T01:59:25.156Z,3.12
2023-04-14T02:00:19.848Z,3.07
2023-04-14T02:01:13.513Z,3.09
2023-04-14T02:02:08.643Z,3.05
2023-04-14T02:03:03.409Z,3.07
2023-04-14T02:03:59.243Z,3.04
2023-04-14T02:04:53.318Z,3.03
2023-04-14T02:05:49.043Z,3.00
2023-04-14T02:06:40.839Z,2.95
2023-04-14T02:07:35.090Z,2.94
2023-04-14T02:08:29.925Z,2.93
2023-04-14T02:09:26.269Z,2.99
2023-04-14T02:10:21.690Z,2.99
2023-04-14T02:11:15.781Z,2.99
2023-04-14T02:12:10.079Z,2.96
2023-04-14T02:13:04.907Z,2.90
2023-04-14T02:13:56.801Z,2.92
2023-04-14T02:14:53.633Z,2.88
2023-04-14T02:15:50.920Z,2.80
2023-04-14T02:16:48.381Z,2.76
2023-04-14T02:17:42.869Z,2.70
2023-04-14T02:18:37.738Z,2.69
2023-04-14T02:19:36.482Z,2.75
2023-04-14T02:20:31.256Z,2.76
2023-04-14T02:21:25.723Z,2.76
2023-04-14T02:22:17.321Z,2.83
2023-04-14T02:23:09.379Z,2.82
2023-04-14T02:24:01.335Z,2.76
2023-04-14T02:24:55.359Z,2.70
2023-04-14T02:25:57.990Z,2.74
2023-04-14T02:27:06.763Z,2.80
2023-04-14T02:28:16.001Z,2.83
2023-04-14T02:29:15.996Z,2.84
2023-04-14T02:30:13.993Z,2.85
2023-04-14T02:31:09.960Z,2.75
2023-04-14T02:32:11.340Z,2.68
2023-04-14T02:33:08.916Z,2.69
2023-04-14T02:34:07.329Z,2.67
2023-04-14T02:35:14.703Z,2.64
2023-04-14T02:36:18.051Z,2.58
2023-04-14T02:37:19.438Z,2.61
2023-04-14T02:38:30.234Z,2.66
2023-04-14T02:39:31.235Z,2.68
2023-04-14T02:40:30.343Z,2.68
2023-04-14T02:41:31.270Z,2.66
2023-04-14T02:42:27.582Z,2.62
2023-04-14T02:43:31.438Z,2.57
2023-04-14T02:44:31.528Z,2.58
2023-04-14T02:45:27.652Z,2.58
2023-04-14T02:46:23.815Z,2.52
2023-04-14T02:47:25.609Z,2.57
2023-04-14T02:48:27.311Z,2.57
2023-04-14T02:49:21.273Z,2.51
2023-04-14T02:50:16.614Z,2.53
2023-04-14T02:51:19.270Z,2.53
2023-04-14T02:52:17.373Z,2.54
2023-04-14T02:53:10.898Z,2.55
2023-04-14T02:54:05.602Z,2.53
2023-04-14T02:55:07.022Z,2.55
2023-04-14T02:56:03.063Z,2.52
2023-04-14T02:56:59.268Z,2.55
2023-04-14T02:57:55.572Z,2.51
2023-04-14T02:58:49.224Z,2.54
2023-04-14T02:59:45.160Z,2.54
2023-04-14T03:00:39.692Z,2.50
2023-04-14T03:01:33.302Z,2.47
2023-04-14T03:02:25.983Z,2.40
2023-04-14T03:03:28.879Z,2.40
2023-04-14T03:04:23.399Z,2.34
2023-04-14T03:05:15.563Z,2.31
2023-04-14T03:06:17.105Z,2.28
2023-04-14T03:07:11.562Z,2.34
2023-04-14T03:08:06.456Z,2.38
2023-04-14T03:09:00.439Z,2.35
2023-04-14T03:09:53.239Z,2.30
2023-04-14T03:10:48.105Z,2.24
2023-04-14T03:11:44.173Z,2.30
2023-04-14T03:12:38.229Z,2.30
2023-04-14T03:13:33.680Z,2.32
2023-04-14T03:14:27.157Z,2.27
2023-04-14T03:15:22.437Z,2.24
2023-04-14T03:16:20.601Z,2.21
2023-04-14T03:17:14.745Z,2.17
2023-04-14T03:18:07.083Z,2.14
2023-04-14T03:18:59.993Z,2.12
2023-04-14T03:19:52.574Z,2.05
2023-04-14T03:20:45.857Z,2.06
2023-04-14T03:21:38.846Z,2.03
2023-04-14T03:22:34.488Z,1.99
2023-04-14T03:23:27.764Z,1.97
2023-04-14T03:24:30.777Z,1.93
2023-04-14T03:25:28.320Z,1.99
2023-04-14T03:26:25.066Z,1.91
2023-04-14T03:27:26.028Z,1.87
2023-04-14T03:28:20.231Z,1.88
2023-04-14T03:29:20.886Z,1.84
2023-04-14T03:30:14.430Z,1.81
2023-04-14T03:31:10.835Z,1.81
2023-04-14T03:32:11.830Z,1.76
2023-04-14T03:33:08.812Z,1.83
2023-04-14T03:34:06.773Z,1.81
2023-04-14T03:35:03.392Z,1.77
2023-04-14T03:35:57.770Z,1.78
2023-04-14T03:36:54.439Z,1.75
2023-04-14T03:37:50.661Z,1.73
2023-04-14T03:38:45.714Z,1.73
2023-04-14T03:39:39.618Z,1.74
2023-04-14T03:40:36.231Z,1.71
2023-04-14T03:41:36.021Z,1.68
2023-04-14T03:42:29.936Z,1.73
2023-04-14T03:43:24.066Z,1.76
2023-04-14T03:44:23.613Z,1.73
2023-04-14T03:45:17.094Z,1.69
2023-04-14T03:46:10.980Z,1.70
2023-04-14T03:47:04.011Z,1.72
2023-04-14T03:48:04.493Z,1.74
2023-04-14T03:49:07.546Z,1.74
2023-04-14T03:50:03.533Z,1.64
2023-04-14T03:50:59.955Z,1.64
2023-04-14T03:52:02.951Z,1.65
2023-04-14T03:52:57.138Z,1.56
2023-04-14T03:53:51.792Z,1.62
2023-04-14T03:54:46.634Z,1.63
2023-04-14T03:55:40.680Z,1.61
2023-04-14T03:56:38.103Z,1.62
2023-04-14T03:57:33.048Z,1.65
2023-04-14T03:58:29.207Z,1.69
2023-04-14T03:59:26.518Z,1.72
2023-04-14T04:00:20.350Z,1.73
2023-04-14T04:01:14.776Z,1.71
2023-04-14T04:02:09.302Z,1.71
2023-04-14T04:03:01.560Z,1.73
2023-04-14T04:03:55.739Z,1.70
2023-04-14T04:04:50.007Z,1.64
2023-04-14T04:05:43.858Z,1.61
2023-04-14T04:06:37.094Z,1.66
2023-04-14T04:07:32.104Z,1.65
2023-04-14T04:08:24.516Z,1.62
2023-04-14T04:09:18.058Z,1.64
2023-04-14T04:10:13.064Z,1.64
2023-04-14T04:11:08.995Z,1.61
2023-04-14T04:12:02.118Z,1.53
2023-04-14T04:13:01.635Z,1.52
2023-04-14T04:13:57.083Z,1.51
2023-04-14T04:14:49.867Z,1.52
2023-04-14T04:15:42.290Z,1.51
2023-04-14T04:16:40.461Z,1.49
2023-04-14T04:17:33.465Z,1.50
2023-04-14T04:18:27.974Z,1.50
2023-04-14T04:19:22.973Z,1.49
2023-04-14T04:20:16.243Z,1.50
2023-04-14T04:21:11.173Z,1.51
2023-04-14T04:22:04.522Z,1.50
2023-04-14T04:23:01.472Z,1.48
2023-04-14T04:23:56.995Z,1.48
2023-04-14T04:24:54.738Z,1.44
2023-04-14T04:25:53.268Z,1.35
2023-04-14T04:26:56.484Z,1.34
2023-04-14T04:27:50.358Z,1.32
2023-04-14T04:28:44.260Z,1.25
2023-04-14T04:29:37.359Z,1.24
2023-04-14T04:30:38.707Z,1.23
2023-04-14T04:31:32.847Z,1.20
2023-04-14T04:32:25.321Z,1.18
2023-04-14T04:33:21.336Z,1.14
2023-04-14T04:34:16.868Z,1.21
2023-04-14T04:35:10.065Z,1.22
2023-04-14T04:36:04.473Z,1.27
2023-04-14T04:37:02.113Z,1.30
2023-04-14T04:37:56.458Z,1.33
2023-04-14T04:38:49.727Z,1.32
2023-04-14T04:39:41.642Z,1.36
2023-04-14T04:40:38.400Z,1.40
2023-04-14T04:41:37.854Z,1.35
2023-04-14T04:42:29.402Z,1.33
2023-04-14T04:43:21.466Z,1.36
2023-04-14T04:44:13.397Z,1.33
2023-04-14T04:45:05.273Z,1.36
2023-04-14T04:46:42.424Z,1.41
2023-04-14T04:47:34.194Z,1.43
2023-04-14T04:48:25.929Z,1.41
2023-04-14T04:49:17.667Z,1.35
2023-04-14T04:50:10.434Z,1.39
2023-04-14T04:51:01.876Z,1.37
2023-04-14T04:51:53.551Z,1.37
2023-04-14T04:52:45.377Z,1.34
2023-04-14T04:53:36.884Z,1.23
2023-04-14T04:54:29.276Z,1.23
2023-04-14T04:55:20.948Z,1.24
2023-04-14T04:56:12.437Z,1.20
2023-04-14T04:57:04.051Z,1.11
2023-04-14T04:57:55.518Z,1.12
2023-04-14T04:58:48.274Z,1.13
2023-04-14T04:59:39.668Z,1.16
2023-04-14T05:00:31.150Z,1.23
2023-04-14T05:01:22.806Z,1.27
2023-04-14T05:02:14.529Z,1.28
2023-04-14T05:03:06.210Z,1.25
2023-04-14T05:04:01.028Z,1.24
2023-04-14T05:04:56.224Z,1.24
2023-04-14T05:05:47.688Z,1.29
2023-04-14T05:06:39.352Z,1.37
2023-04-14T05:07:30.779Z,1.39
2023-04-14T05:08:23.508Z,1.40
2023-04-14T05:09:15.201Z,1.36
2023-04-14T05:10:07.430Z,1.33
2023-04-14T05:10:58.911Z,1.32
2023-04-14T05:11:50.559Z,1.33
2023-04-14T05:12:46.782Z,1.34
2023-04-14T05:13:38.508Z,1.33
2023-04-14T05:14:29.983Z,1.28
2023-04-14T05:15:23.533Z,1.24
2023-04-14T05:16:15.708Z,1.20
2023-04-14T05:17:07.270Z,1.16
2023-04-14T05:17:59.143Z,1.16
2023-04-14T05:18:51.076Z,1.22
2023-04-14T05:19:45.176Z,1.24
2023-04-14T05:20:37.069Z,1.32
2023-04-14T05:21:28.527Z,1.37
2023-04-14T05:22:20.611Z,1.37
2023-04-14T05:23:13.363Z,1.38
2023-04-14T05:24:05.365Z,1.36
2023-04-14T05:24:57.402Z,1.37
2023-04-14T05:25:48.885Z,1.37
2023-04-14T05:27:34.750Z,1.35
2023-04-14T05:28:28.927Z,1.28
2023-04-14T05:29:20.553Z,1.27
2023-04-14T05:30:12.729Z,1.30
2023-04-14T05:31:04.304Z,1.33
2023-04-14T05:31:56.216Z,1.40
2023-04-14T05:32:47.649Z,1.47
2023-04-14T05:33:39.890Z,1.50
2023-04-14T05:34:31.552Z,1.54
2023-04-14T05:35:25.207Z,1.52
2023-04-14T05:36:17.308Z,1.55
2023-04-14T05:37:08.848Z,1.52
2023-04-14T05:38:00.332Z,1.45
2023-04-14T05:38:52.265Z,1.48
2023-04-14T05:39:43.968Z,1.43
2023-04-14T05:40:35.385Z,1.41
2023-04-14T05:41:26.839Z,1.39
2023-04-14T05:42:18.330Z,1.38
2023-04-14T05:43:09.774Z,1.38
2023-04-14T05:44:03.392Z,1.41
2023-04-14T05:44:55.103Z,1.42
2023-04-14T05:45:49.243Z,1.42
2023-04-14T05:46:41.220Z,1.49
2023-04-14T05:47:35.179Z,1.50
2023-04-14T05:48:29.797Z,1.53
2023-04-14T05:49:21.393Z,1.58
2023-04-14T05:50:16.401Z,1.63
2023-04-14T05:51:07.863Z,1.68
2023-04-14T05:52:01.721Z,1.71
2023-04-14T05:52:56.012Z,1.75
2023-04-14T05:53:47.479Z,1.78
2023-04-14T05:54:43.104Z,1.75
2023-04-14T05:55:35.086Z,1.77
2023-04-14T05:56:26.624Z,1.79
2023-04-14T05:57:18.164Z,1.80
2023-04-14T05:58:10.100Z,1.81
2023-04-14T05:59:06.812Z,1.80
2023-04-14T05:59:58.450Z,1.83
2023-04-14T06:00:49.940Z,1.85
2023-04-14T06:01:41.340Z,1.87
2023-04-14T06:02:33.071Z,1.87
2023-04-14T06:03:24.887Z,1.92
2023-04-14T06:04:18.811Z,1.93
2023-04-14T06:05:11.090Z,1.98
2023-04-14T06:06:02.681Z,2.01
2023-04-14T06:06:55.368Z,2.01
2023-04-14T06:07:47.217Z,2.04
2023-04-14T06:08:38.736Z,2.06
2023-04-14T06:09:35.238Z,2.11
2023-04-14T06:10:27.233Z,2.09
2023-04-14T06:11:18.601Z,2.13
2023-04-14T06:12:10.285Z,2.16
2023-04-14T06:13:04.436Z,2.19
2023-04-14T06:13:56.160Z,2.20
2023-04-14T06:14:47.629Z,2.22
2023-04-14T06:15:39.094Z,2.25
2023-04-14T06:16:31.013Z,2.26
2023-04-14T06:17:22.942Z,2.28
2023-04-14T06:18:17.639Z,2.34
2023-04-14T06:19:09.681Z,2.36
2023-04-14T06:20:04.188Z,2.36
2023-04-14T06:20:55.674Z,2.38
2023-04-14T06:21:47.533Z,2.39
2023-04-14T06:22:40.418Z,2.40
2023-04-14T06:23:32.323Z,2.42
2023-04-14T06:24:23.730Z,2.46
2023-04-14T06:25:15.314Z,2.49
2023-04-14T06:26:06.934Z,2.50
2023-04-14T06:26:58.622Z,2.49
2023-04-14T06:27:53.073Z,2.50
2023-04-14T06:28:44.554Z,2.52
2023-04-14T06:29:36.102Z,2.57
2023-04-14T06:30:30.427Z,2.59
2023-04-14T06:31:22.034Z,2.60
2023-04-14T06:32:13.862Z,2.63
2023-04-14T06:33:05.669Z,2.67
2023-04-14T06:33:57.150Z,2.69
2023-04-14T06:34:49.806Z,2.71
2023-04-14T06:35:43.583Z,2.78
2023-04-14T06:36:35.552Z,2.81
2023-04-14T06:37:27.101Z,2.83
2023-04-14T06:38:19.114Z,2.84
2023-04-14T06:39:11.111Z,2.83
2023-04-14T06:40:04.946Z,2.95
2023-04-14T06:40:56.354Z,2.98
2023-04-14T06:41:48.101Z,3.03
2023-04-14T06:42:39.566Z,3.04
2023-04-14T06:43:30.999Z,3.06
2023-04-14T06:44:22.491Z,3.05
2023-04-14T06:45:14.207Z,3.05
2023-04-14T06:46:06.197Z,3.09
2023-04-14T06:46:57.708Z,3.11
2023-04-14T06:47:49.181Z,3.12
2023-04-14T06:48:43.712Z,3.18
2023-04-14T06:49:36.888Z,3.19
2023-04-14T06:50:28.476Z,3.22
2023-04-14T06:51:20.095Z,3.23
2023-04-14T06:52:11.513Z,3.28
2023-04-14T06:53:04.547Z,3.32
2023-04-14T06:53:56.610Z,3.38
2023-04-14T06:54:48.249Z,3.41
2023-04-14T06:55:43.305Z,3.45
2023-04-14T06:56:34.744Z,3.46
2023-04-14T06:57:29.500Z,3.51
2023-04-14T06:58:21.619Z,3.53
2023-04-14T06:59:15.521Z,3.57
2023-04-14T07:00:09.614Z,3.57
2023-04-14T07:01:03.075Z,3.60
2023-04-14T07:01:54.932Z,3.65
2023-04-14T07:02:46.606Z,3.65
2023-04-14T07:03:38.264Z,3.64
2023-04-14T07:04:29.812Z,3.62
2023-04-14T07:05:21.311Z,3.65
2023-04-14T07:06:17.078Z,3.66
2023-04-14T07:07:08.971Z,3.68
2023-04-14T07:08:00.521Z,3.68
2023-04-14T07:08:52.152Z,3.70
2023-04-14T07:09:43.761Z,3.71
2023-04-14T07:10:35.262Z,3.70
2023-04-14T07:11:26.777Z,3.72
2023-04-14T07:12:18.257Z,3.71
2023-04-14T07:13:12.218Z,3.73
2023-04-14T07:14:03.786Z,3.73
2023-04-14T07:14:55.415Z,3.75
2023-04-14T07:15:48.044Z,3.78
2023-04-14T07:16:42.138Z,3.77
2023-04-14T07:17:36.151Z,3.76
2023-04-14T07:18:27.926Z,3.77
2023-04-14T07:19:19.641Z,3.82
2023-04-14T07:20:11.736Z,3.82
2023-04-14T07:21:03.374Z,3.84
2023-04-14T07:21:54.789Z,3.86
2023-04-14T07:22:46.406Z,3.91
2023-04-14T07:23:37.971Z,3.98
2023-04-14T07:24:30.484Z,4.11
2023-04-14T07:25:22.979Z,4.12
2023-04-14T07:26:14.743Z,4.21
2023-04-14T07:27:07.271Z,4.35
2023-04-14T07:28:03.737Z,4.38
2023-04-14T07:28:56.564Z,4.47
2023-04-14T07:29:48.167Z,4.50
2023-04-14T07:30:39.532Z,4.55
2023-04-14T07:31:35.608Z,4.52
2023-04-14T07:32:27.564Z,4.53
2023-04-14T07:33:23.860Z,4.60
2023-04-14T07:34:15.251Z,4.61
2023-04-14T07:35:10.725Z,4.68
2023-04-14T07:36:04.817Z,4.69
2023-04-14T07:36:56.448Z,4.69
2023-04-14T07:37:48.951Z,4.67
2023-04-14T07:38:42.639Z,4.65
2023-04-14T07:39:34.242Z,4.72
2023-04-14T07:40:25.931Z,4.73
2023-04-14T07:41:18.210Z,4.75
2023-04-14T07:42:09.606Z,4.74
2023-04-14T07:43:01.433Z,4.82
2023-04-14T07:43:56.570Z,4.84
2023-04-14T07:44:48.015Z,4.81
2023-04-14T07:45:39.653Z,4.82
2023-04-14T07:46:31.479Z,4.85
2023-04-14T07:47:23.241Z,4.87
2023-04-14T07:48:22.486Z,5.00
2023-04-14T07:49:14.025Z,5.03
2023-04-14T07:50:06.084Z,5.07
2023-04-14T07:51:00.013Z,5.15
2023-04-14T07:51:51.656Z,5.15
2023-04-14T07:52:43.145Z,5.23
2023-04-14T07:53:35.290Z,5.23
2023-04-14T07:54:26.771Z,5.21
2023-04-14T07:55:18.854Z,5.21
2023-04-14T07:56:11.695Z,5.23
2023-04-14T07:57:03.095Z,5.34
2023-04-14T07:57:55.972Z,5.42
2023-04-14T07:58:47.367Z,5.39
2023-04-14T07:59:42.642Z,5.35
2023-04-14T08:00:34.047Z,5.37
2023-04-14T08:01:26.939Z,5.42
2023-04-14T08:02:18.476Z,5.43
2023-04-14T08:03:10.426Z,5.50
2023-04-14T08:04:02.502Z,5.56
2023-04-14T08:04:54.151Z,5.59
2023-04-14T08:05:45.877Z,5.60
2023-04-14T08:06:37.383Z,5.62
2023-04-14T08:07:28.855Z,5.76
2023-04-14T08:08:20.578Z,5.89
2023-04-14T08:09:12.235Z,6.12
2023-04-14T08:10:04.015Z,6.20
2023-04-14T08:10:55.661Z,6.21
2023-04-14T08:11:47.103Z,6.19
2023-04-14T08:12:38.718Z,6.14
2023-04-14T08:13:31.386Z,6.10
2023-04-14T08:14:23.514Z,6.12
2023-04-14T08:15:15.324Z,6.17
2023-04-14T08:16:08.757Z,6.18
2023-04-14T08:17:00.454Z,6.34
2023-04-14T08:17:52.346Z,6.44
2023-04-14T08:18:43.880Z,6.45
2023-04-14T08:19:42.825Z,6.39
2023-04-14T08:20:34.391Z,6.32
2023-04-14T08:21:28.328Z,6.30
2023-04-14T08:22:19.662Z,6.31
2023-04-14T08:23:14.376Z,6.33
2023-04-14T08:24:06.487Z,6.28
2023-04-14T08:24:57.879Z,6.26
2023-04-14T08:25:49.297Z,6.28
2023-04-14T08:26:41.319Z,6.31
2023-04-14T08:27:33.065Z,6.39
2023-04-14T08:28:24.666Z,6.46
2023-04-14T08:29:16.052Z,6.54
2023-04-14T08:30:09.490Z,6.50
2023-04-14T08:31:01.763Z,6.58
2023-04-14T08:31:53.260Z,6.81
2023-04-14T08:32:45.458Z,6.88
2023-04-14T08:33:36.873Z,6.82
2023-04-14T08:34:29.786Z,6.74
2023-04-14T08:35:37.967Z,7.01
2023-04-14T08:36:32.704Z,7.10
2023-04-14T08:37:24.765Z,7.11
2023-04-14T08:38:16.262Z,7.03
2023-04-14T08:39:07.683Z,6.99
2023-04-14T08:39:59.239Z,6.98
2023-04-14T08:40:56.348Z,6.94
2023-04-14T08:41:52.242Z,7.00
2023-04-14T08:42:46.232Z,7.11
2023-04-14T08:43:37.903Z,7.13
2023-04-14T08:44:29.739Z,7.09
2023-04-14T08:45:21.338Z,7.06
2023-04-14T08:46:16.944Z,7.32
2023-04-14T08:47:11.217Z,7.57
2023-04-14T08:48:04.429Z,7.67
2023-04-14T08:49:06.850Z,7.70
2023-04-14T08:50:09.650Z,7.99
2023-04-14T08:51:32.422Z,8.05
2023-04-14T08:52:28.905Z,8.03
2023-04-14T08:53:25.333Z,7.96
2023-04-14T08:54:21.573Z,7.81
2023-04-14T08:55:15.499Z,7.73
2023-04-14T08:56:09.366Z,7.84
2023-04-14T08:57:03.497Z,7.85
2023-04-14T08:57:55.966Z,8.02
2023-04-14T08:58:48.164Z,8.24
2023-04-14T08:59:41.318Z,8.11
2023-04-14T09:00:33.219Z,8.05
2023-04-14T09:01:25.985Z,8.13
2023-04-14T09:02:19.113Z,8.03
2023-04-14T09:03:13.836Z,8.03
2023-04-14T09:04:08.126Z,7.95
2023-04-14T09:05:01.164Z,8.03
2023-04-14T09:05:53.374Z,7.99
2023-04-14T09:06:46.010Z,7.96
2023-04-14T09:07:38.177Z,8.16
2023-04-14T09:08:33.901Z,8.38
2023-04-14T09:09:25.849Z,8.59
2023-04-14T09:10:19.536Z,8.52
2023-04-14T09:11:11.826Z,8.58
2023-04-14T09:12:04.246Z,8.47
2023-04-14T09:12:56.849Z,8.38
2023-04-14T09:13:49.915Z,8.30
2023-04-14T09:14:46.963Z,8.28
2023-04-14T09:15:38.587Z,8.28
2023-04-14T09:16:30.904Z,8.46
2023-04-14T09:17:23.120Z,8.87
2023-04-14T09:18:17.113Z,9.12
2023-04-14T09:19:09.578Z,9.30
2023-04-14T09:20:35.718Z,9.26
2023-04-14T09:21:50.895Z,9.46
2023-04-14T09:22:27.552Z,9.43
2023-04-14T09:23:24.996Z,9.60
2023-04-14T09:24:19.974Z,9.44
2023-04-14T09:25:14.463Z,9.41
2023-04-14T09:26:09.210Z,9.73
2023-04-14T09:27:05.054Z,9.85
2023-04-14T09:27:56.640Z,9.77
2023-04-14T09:28:49.344Z,9.80
2023-04-14T09:29:42.180Z,9.84
2023-04-14T09:30:34.258Z,9.98
2023-04-14T09:31:28.602Z,9.91
2023-04-14T09:32:22.117Z,9.78
2023-04-14T09:33:23.162Z,9.63
2023-04-14T09:34:17.773Z,9.92
2023-04-14T09:35:13.196Z,9.94
2023-04-14T09:36:05.023Z,10.07
2023-04-14T09:37:04.701Z,9.98
2023-04-14T09:37:58.633Z,9.85
2023-04-14T09:38:51.715Z,9.66
2023-04-14T09:39:51.728Z,9.75
2023-04-14T09:40:47.346Z,9.68
2023-04-14T09:41:47.616Z,9.59
2023-04-14T09:42:42.527Z,9.55
2023-04-14T09:43:34.856Z,9.54
2023-04-14T09:44:26.620Z,9.44
2023-04-14T09:45:18.158Z,9.54
2023-04-14T09:46:13.718Z,9.83
2023-04-14T09:47:07.473Z,9.80
2023-04-14T09:48:06.693Z,9.85
2023-04-14T09:48:59.221Z,9.84
2023-04-14T09:49:59.528Z,9.67
2023-04-14T09:51:03.408Z,9.50
2023-04-14T09:52:01.356Z,9.38
2023-04-14T09:52:55.664Z,9.63
2023-04-14T09:53:48.873Z,10.07
2023-04-14T09:54:41.305Z,10.19
2023-04-14T09:55:33.046Z,10.17
2023-04-14T09:56:28.373Z,10.09
2023-04-14T09:57:26.565Z,10.02
2023-04-14T09:58:24.635Z,9.89
2023-04-14T09:59:32.004Z,9.79
2023-04-14T10:00:24.582Z,9.78
2023-04-14T10:01:20.498Z,9.67
2023-04-14T10:02:12.200Z,9.80
2023-04-14T10:03:03.909Z,9.76
2023-04-14T10:03:55.411Z,9.72
2023-04-14T10:05:02.179Z,9.65
2023-04-14T10:05:53.798Z,9.55
2023-04-14T10:06:47.899Z,9.47
2023-04-14T10:07:42.490Z,9.64
2023-04-14T10:08:37.091Z,9.79
2023-04-14T10:09:29.868Z,9.79
2023-04-14T10:10:22.564Z,9.73
2023-04-14T10:11:15.388Z,9.76
2023-04-14T10:12:13.145Z,9.72
2023-04-14T10:13:04.742Z,9.61
2023-04-14T10:14:06.313Z,9.63
2023-04-14T10:15:01.525Z,9.57
2023-04-14T10:15:53.061Z,9.86
2023-04-14T10:16:44.577Z,9.77
2023-04-14T10:17:37.966Z,9.67
2023-04-14T10:18:29.792Z,10.04
2023-04-14T10:19:22.971Z,9.94
2023-04-14T10:20:16.471Z,10.06
2023-04-14T10:21:09.641Z,10.20
2023-04-14T10:22:02.031Z,10.20
2023-04-14T10:22:56.655Z,10.28
2023-04-14T10:23:48.859Z,10.30
2023-04-14T10:24:41.709Z,10.21
2023-04-14T10:25:34.122Z,10.12
2023-04-14T10:26:27.227Z,10.15
2023-04-14T10:27:20.102Z,10.12
2023-04-14T10:28:12.331Z,10.10
2023-04-14T10:29:04.198Z,10.14
2023-04-14T10:29:56.659Z,10.09
2023-04-14T10:30:52.657Z,10.13
2023-04-14T10:31:49.987Z,10.05
2023-04-14T10:32:44.800Z,9.99
2023-04-14T10:33:38.063Z,10.54
2023-04-14T10:34:34.868Z,10.40
2023-04-14T10:35:27.172Z,10.57
2023-04-14T10:36:28.185Z,10.84
2023-04-14T10:37:21.801Z,10.92
2023-04-14T10:38:14.552Z,11.08
2023-04-14T10:39:07.157Z,11.13
2023-04-14T10:40:03.816Z,11.05
2023-04-14T10:40:58.629Z,11.00
2023-04-14T10:41:52.484Z,10.93
2023-04-14T10:42:57.115Z,10.97
2023-04-14T10:43:48.874Z,11.25
2023-04-14T10:44:43.811Z,11.09
2023-04-14T10:45:52.965Z,11.21
2023-04-14T10:46:44.873Z,11.30
2023-04-14T10:47:40.253Z,11.38
2023-04-14T10:48:39.197Z,11.39
2023-04-14T10:49:41.625Z,11.08
2023-04-14T10:50:47.753Z,11.05
2023-04-14T10:51:39.288Z,10.92
2023-04-14T10:52:31.369Z,10.81
2023-04-14T10:53:29.279Z,10.88
2023-04-14T10:54:22.848Z,10.83
2023-04-14T10:55:18.072Z,10.73
2023-04-14T10:56:10.244Z,10.64
2023-04-14T10:57:10.577Z,10.66
2023-04-14T10:58:08.824Z,10.66
2023-04-14T10:59:02.728Z,10.64
2023-04-14T11:00:00.617Z,10.99
2023-04-14T11:00:54.366Z,11.03
2023-04-14T11:01:54.408Z,11.02
2023-04-14T11:02:57.576Z,10.89
2023-04-14T11:03:49.310Z,10.81
2023-04-14T11:04:59.993Z,10.68
2023-04-14T11:05:52.621Z,10.73
2023-04-14T11:06:47.459Z,10.78
2023-04-14T11:08:00.649Z,10.71
2023-04-14T11:08:55.142Z,10.80
2023-04-14T11:09:49.336Z,10.98
2023-04-14T11:10:41.838Z,10.99
2023-04-14T11:11:33.420Z,10.94
2023-04-14T11:12:27.776Z,10.86
2023-04-14T11:13:20.230Z,10.77
2023-04-14T11:14:11.717Z,10.78
2023-04-14T11:15:04.039Z,11.20
2023-04-14T11:16:07.145Z,11.17
2023-04-14T11:17:04.844Z,11.24
2023-04-14T11:18:17.929Z,11.21
2023-04-14T11:19:17.484Z,11.53
2023-04-14T11:20:21.007Z,11.54
2023-04-14T11:21:15.875Z,11.70
2023-04-14T11:22:07.700Z,11.56
2023-04-14T11:23:00.203Z,11.62
2023-04-14T11:23:51.909Z,11.53
2023-04-14T11:24:43.625Z,11.58
2023-04-14T11:25:35.204Z,11.67
2023-04-14T11:26:26.676Z,11.69
2023-04-14T11:27:19.322Z,11.69
2023-04-14T11:28:10.808Z,12.04
2023-04-14T11:29:08.649Z,12.33
2023-04-14T11:30:06.944Z,12.47
2023-04-14T11:31:00.781Z,12.57
2023-04-14T11:32:07.436Z,12.70
2023-04-14T11:33:01.613Z,12.41
2023-04-14T11:33:53.227Z,12.27
2023-04-14T11:34:44.806Z,12.16
2023-04-14T11:35:36.576Z,12.11
2023-04-14T11:36:32.155Z,11.98
2023-04-14T11:37:25.567Z,11.89
2023-04-14T11:38:42.453Z,11.83
2023-04-14T11:39:39.231Z,11.82
2023-04-14T11:40:39.612Z,11.77
2023-04-14T11:41:33.923Z,11.81
2023-04-14T11:42:28.730Z,11.76
2023-04-14T11:43:22.925Z,11.77
2023-04-14T11:44:31.229Z,11.82
2023-04-14T11:45:30.158Z,11.86
2023-04-14T11:46:22.221Z,12.00
2023-04-14T11:47:13.882Z,12.01
2023-04-14T11:48:07.088Z,12.11
2023-04-14T11:48:59.737Z,12.10
2023-04-14T11:49:51.672Z,12.14
2023-04-14T11:50:46.069Z,12.18
2023-04-14T11:51:37.765Z,12.26
2023-04-14T11:52:29.441Z,12.68
2023-04-14T11:53:23.325Z,12.71
2023-04-14T11:54:14.898Z,12.83
2023-04-14T11:55:09.366Z,13.00
2023-04-14T11:56:03.123Z,13.02
2023-04-14T11:56:54.578Z,12.98
2023-04-14T11:57:47.052Z,12.85
2023-04-14T11:58:39.057Z,12.91
2023-04-14T11:59:30.622Z,12.95
2023-04-14T12:00:22.675Z,12.90
2023-04-14T12:01:14.900Z,12.92
2023-04-14T12:02:16.910Z,12.84
2023-04-14T12:03:08.939Z,12.82
2023-04-14T12:04:00.990Z,12.96
2023-04-14T12:04:55.099Z,12.97
2023-04-14T12:05:47.019Z,12.86